sensor_id;sensor_type;location;lat;lon;timestamp;pressure;altitude;pressure_sealevel;temperature;humidity
81057;BME280;70563;50.084;14.468;2023-12-22T00:02:03;96300.94;;;4.69;63.10
81057;BME280;70563;50.084;14.468;2023-12-22T00:04:28;96297.13;;;4.72;62.24
81057;BME280;70563;50.084;14.468;2023-12-22T00:06:54;96309.19;;;4.73;63.25
81057;BME280;70563;50.084;14.468;2023-12-22T00:09:20;96316.81;;;4.81;62.71
81057;BME280;70563;50.084;14.468;2023-12-22T00:11:45;96317.81;;;4.73;63.27
81057;BME280;70563;50.084;14.468;2023-12-22T00:14:10;96306.16;;;4.76;63.95
81057;BME280;70563;50.084;14.468;2023-12-22T00:16:37;96304.16;;;4.65;62.76
81057;BME280;70563;50.084;14.468;2023-12-22T00:19:03;96312.81;;;4.65;63.06
81057;BME280;70563;50.084;14.468;2023-12-22T00:21:28;96317.06;;;4.66;63.81
81057;BME280;70563;50.084;14.468;2023-12-22T00:23:54;96300.75;;;4.71;63.35
81057;BME280;70563;50.084;14.468;2023-12-22T00:26:19;96305.97;;;4.64;63.62
81057;BME280;70563;50.084;14.468;2023-12-22T00:28:45;96308.59;;;4.58;63.10
81057;BME280;70563;50.084;14.468;2023-12-22T00:31:10;96315.84;;;4.62;63.53
81057;BME280;70563;50.084;14.468;2023-12-22T00:33:37;96302.38;;;4.59;64.42
81057;BME280;70563;50.084;14.468;2023-12-22T00:36:03;96309.41;;;4.71;63.94
81057;BME280;70563;50.084;14.468;2023-12-22T00:38:28;96313.81;;;4.64;63.87
81057;BME280;70563;50.084;14.468;2023-12-22T00:40:54;96312.84;;;4.59;63.63
81057;BME280;70563;50.084;14.468;2023-12-22T00:43:19;96329.53;;;4.51;63.26
81057;BME280;70563;50.084;14.468;2023-12-22T00:45:45;96318.88;;;4.46;63.23
81057;BME280;70563;50.084;14.468;2023-12-22T00:48:10;96321.28;;;4.47;63.40
81057;BME280;70563;50.084;14.468;2023-12-22T00:50:35;96331.16;;;4.45;63.40
81057;BME280;70563;50.084;14.468;2023-12-22T00:53:01;96316.47;;;4.51;62.96
81057;BME280;70563;50.084;14.468;2023-12-22T00:55:26;96330.13;;;4.53;62.92
81057;BME280;70563;50.084;14.468;2023-12-22T00:57:51;96326.50;;;4.47;63.27
81057;BME280;70563;50.084;14.468;2023-12-22T01:00:17;96343.41;;;4.45;63.50
81057;BME280;70563;50.084;14.468;2023-12-22T01:02:42;96350.81;;;4.35;64.12
81057;BME280;70563;50.084;14.468;2023-12-22T01:05:09;96347.44;;;4.27;64.32
81057;BME280;70563;50.084;14.468;2023-12-22T01:07:34;96341.00;;;4.23;64.00
81057;BME280;70563;50.084;14.468;2023-12-22T01:09:59;96338.56;;;4.22;64.29
81057;BME280;70563;50.084;14.468;2023-12-22T01:12:29;96347.00;;;4.31;64.33
81057;BME280;70563;50.084;14.468;2023-12-22T01:14:58;96357.66;;;4.36;63.13
81057;BME280;70563;50.084;14.468;2023-12-22T01:17:23;96360.47;;;4.34;63.59
81057;BME280;70563;50.084;14.468;2023-12-22T01:19:49;96360.28;;;4.36;63.82
81057;BME280;70563;50.084;14.468;2023-12-22T01:22:16;96360.09;;;4.37;63.95
81057;BME280;70563;50.084;14.468;2023-12-22T01:24:41;96371.56;;;4.36;64.22
81057;BME280;70563;50.084;14.468;2023-12-22T01:27:09;96372.72;;;4.40;64.26
81057;BME280;70563;50.084;14.468;2023-12-22T01:29:35;96373.16;;;4.37;64.13
81057;BME280;70563;50.084;14.468;2023-12-22T01:32:00;96364.72;;;4.42;63.95
81057;BME280;70563;50.084;14.468;2023-12-22T01:34:25;96366.31;;;4.30;64.37
81057;BME280;70563;50.084;14.468;2023-12-22T01:36:51;96379.75;;;4.26;64.01
81057;BME280;70563;50.084;14.468;2023-12-22T01:39:16;96369.94;;;4.28;64.87
81057;BME280;70563;50.084;14.468;2023-12-22T01:41:42;96392.63;;;4.21;64.71
81057;BME280;70563;50.084;14.468;2023-12-22T01:44:07;96386.19;;;4.17;64.66
81057;BME280;70563;50.084;14.468;2023-12-22T01:46:33;96383.56;;;4.11;64.84
81057;BME280;70563;50.084;14.468;2023-12-22T01:49:00;96376.75;;;4.16;64.38
81057;BME280;70563;50.084;14.468;2023-12-22T01:51:32;96381.13;;;4.09;65.57
81057;BME280;70563;50.084;14.468;2023-12-22T01:53:59;96378.91;;;3.99;65.78
81057;BME280;70563;50.084;14.468;2023-12-22T01:56:25;96376.09;;;4.01;66.09
81057;BME280;70563;50.084;14.468;2023-12-22T01:58:53;96366.25;;;3.90;66.02
81057;BME280;70563;50.084;14.468;2023-12-22T02:01:20;96380.69;;;3.86;66.31
81057;BME280;70563;50.084;14.468;2023-12-22T02:03:51;96386.69;;;3.80;66.54
81057;BME280;70563;50.084;14.468;2023-12-22T02:06:19;96385.47;;;3.75;66.52
81057;BME280;70563;50.084;14.468;2023-12-22T02:08:49;96377.88;;;3.81;65.64
81057;BME280;70563;50.084;14.468;2023-12-22T02:11:15;96370.84;;;3.88;65.48
81057;BME280;70563;50.084;14.468;2023-12-22T02:13:42;96377.88;;;3.81;65.32
81057;BME280;70563;50.084;14.468;2023-12-22T02:16:18;96380.25;;;3.69;65.95
81057;BME280;70563;50.084;14.468;2023-12-22T02:18:47;96351.72;;;3.61;65.68
81057;BME280;70563;50.084;14.468;2023-12-22T02:21:13;96370.16;;;3.52;66.01
81057;BME280;70563;50.084;14.468;2023-12-22T02:23:39;96364.09;;;3.45;65.84
81057;BME280;70563;50.084;14.468;2023-12-22T02:26:33;96353.28;;;3.48;66.02
81057;BME280;70563;50.084;14.468;2023-12-22T02:29:00;96369.56;;;3.50;65.77
81057;BME280;70563;50.084;14.468;2023-12-22T02:31:42;96369.94;;;3.47;65.85
81057;BME280;70563;50.084;14.468;2023-12-22T02:34:11;96374.13;;;3.42;66.32
81057;BME280;70563;50.084;14.468;2023-12-22T02:36:38;96359.50;;;3.47;65.29
81057;BME280;70563;50.084;14.468;2023-12-22T02:39:06;96368.50;;;3.45;65.81
81057;BME280;70563;50.084;14.468;2023-12-22T02:41:32;96351.47;;;3.49;65.09
81057;BME280;70563;50.084;14.468;2023-12-22T02:43:58;96362.31;;;3.52;64.88
81057;BME280;70563;50.084;14.468;2023-12-22T02:46:24;96359.47;;;3.41;65.55
81057;BME280;70563;50.084;14.468;2023-12-22T02:48:49;96369.09;;;3.40;65.32
81057;BME280;70563;50.084;14.468;2023-12-22T02:51:15;96371.06;;;3.32;65.52
81057;BME280;70563;50.084;14.468;2023-12-22T02:53:40;96358.03;;;3.32;64.99
81057;BME280;70563;50.084;14.468;2023-12-22T02:56:06;96371.03;;;3.25;65.29
81057;BME280;70563;50.084;14.468;2023-12-22T02:58:31;96364.78;;;3.19;65.65
81057;BME280;70563;50.084;14.468;2023-12-22T03:00:56;96373.66;;;3.25;65.82
81057;BME280;70563;50.084;14.468;2023-12-22T03:03:22;96369.44;;;3.24;65.06
81057;BME280;70563;50.084;14.468;2023-12-22T03:05:47;96360.00;;;3.23;64.78
81057;BME280;70563;50.084;14.468;2023-12-22T03:08:12;96364.78;;;3.19;65.19
81057;BME280;70563;50.084;14.468;2023-12-22T03:10:38;96365.19;;;3.16;64.96
81057;BME280;70563;50.084;14.468;2023-12-22T03:13:03;96372.16;;;3.09;65.22
81057;BME280;70563;50.084;14.468;2023-12-22T03:15:28;96374.16;;;3.07;64.89
81057;BME280;70563;50.084;14.468;2023-12-22T03:17:54;96363.13;;;3.05;65.16
81057;BME280;70563;50.084;14.468;2023-12-22T03:20:19;96385.97;;;3.03;65.01
81057;BME280;70563;50.084;14.468;2023-12-22T03:22:45;96364.31;;;3.03;65.20
81057;BME280;70563;50.084;14.468;2023-12-22T03:25:10;96376.78;;;3.07;65.15
81057;BME280;70563;50.084;14.468;2023-12-22T03:27:35;96387.56;;;3.04;65.01
81057;BME280;70563;50.084;14.468;2023-12-22T03:30:01;96377.94;;;2.98;65.38
81057;BME280;70563;50.084;14.468;2023-12-22T03:32:27;96390.75;;;2.99;64.85
81057;BME280;70563;50.084;14.468;2023-12-22T03:34:52;96400.03;;;3.09;64.11
81057;BME280;70563;50.084;14.468;2023-12-22T03:37:17;96401.66;;;3.10;63.91
81057;BME280;70563;50.084;14.468;2023-12-22T03:39:43;96392.22;;;3.09;63.68
81057;BME280;70563;50.084;14.468;2023-12-22T03:42:08;96397.47;;;3.15;63.54
81057;BME280;70563;50.084;14.468;2023-12-22T03:44:34;96398.88;;;3.18;63.66
81057;BME280;70563;50.084;14.468;2023-12-22T03:46:59;96380.69;;;3.24;63.36
81057;BME280;70563;50.084;14.468;2023-12-22T03:49:24;96383.31;;;3.31;62.36
81057;BME280;70563;50.084;14.468;2023-12-22T03:51:50;96375.69;;;3.30;62.75
81057;BME280;70563;50.084;14.468;2023-12-22T03:54:15;96381.66;;;3.23;63.01
81057;BME280;70563;50.084;14.468;2023-12-22T03:56:43;96395.16;;;3.34;62.71
81057;BME280;70563;50.084;14.468;2023-12-22T03:59:09;96393.16;;;3.36;62.33
81057;BME280;70563;50.084;14.468;2023-12-22T04:01:34;96381.16;;;3.48;62.20
81057;BME280;70563;50.084;14.468;2023-12-22T04:04:00;96385.22;;;3.57;61.46
81057;BME280;70563;50.084;14.468;2023-12-22T04:06:25;96377.97;;;3.46;62.02
81057;BME280;70563;50.084;14.468;2023-12-22T04:08:52;96373.66;;;3.32;62.84
81057;BME280;70563;50.084;14.468;2023-12-22T04:11:17;96366.63;;;3.25;62.52
81057;BME280;70563;50.084;14.468;2023-12-22T04:13:42;96362.97;;;3.13;62.96
81057;BME280;70563;50.084;14.468;2023-12-22T04:16:08;96366.72;;;3.04;63.79
81057;BME280;70563;50.084;14.468;2023-12-22T04:18:33;96361.50;;;3.04;63.43
81057;BME280;70563;50.084;14.468;2023-12-22T04:20:58;96372.72;;;2.98;63.35
81057;BME280;70563;50.084;14.468;2023-12-22T04:23:24;96373.25;;;2.93;63.75
81057;BME280;70563;50.084;14.468;2023-12-22T04:25:49;96378.53;;;3.00;64.05
81057;BME280;70563;50.084;14.468;2023-12-22T04:28:15;96360.66;;;2.97;64.72
81057;BME280;70563;50.084;14.468;2023-12-22T04:30:40;96358.84;;;2.97;64.77
81057;BME280;70563;50.084;14.468;2023-12-22T04:33:06;96357.88;;;2.98;64.93
81057;BME280;70563;50.084;14.468;2023-12-22T04:35:31;96365.50;;;3.00;64.93
81057;BME280;70563;50.084;14.468;2023-12-22T04:37:56;96357.31;;;3.10;64.86
81057;BME280;70563;50.084;14.468;2023-12-22T04:40:22;96355.72;;;3.09;64.37
81057;BME280;70563;50.084;14.468;2023-12-22T04:42:47;96361.50;;;3.04;64.54
81057;BME280;70563;50.084;14.468;2023-12-22T04:45:12;96359.91;;;3.03;65.30
81057;BME280;70563;50.084;14.468;2023-12-22T04:47:38;96358.69;;;2.99;65.36
81057;BME280;70563;50.084;14.468;2023-12-22T04:50:03;96361.88;;;2.94;65.80
81057;BME280;70563;50.084;14.468;2023-12-22T04:52:29;96360.28;;;3.00;65.67
81057;BME280;70563;50.084;14.468;2023-12-22T04:54:54;96353.88;;;3.03;65.38
81057;BME280;70563;50.084;14.468;2023-12-22T04:57:20;96358.63;;;2.92;66.13
81057;BME280;70563;50.084;14.468;2023-12-22T04:59:47;96347.81;;;2.95;66.02
81057;BME280;70563;50.084;14.468;2023-12-22T05:02:12;96351.44;;;2.94;66.23
81057;BME280;70563;50.084;14.468;2023-12-22T05:04:37;96356.28;;;3.04;66.13
81057;BME280;70563;50.084;14.468;2023-12-22T05:07:03;96368.53;;;3.10;66.21
81057;BME280;70563;50.084;14.468;2023-12-22T05:09:33;96381.28;;;3.26;65.44
81057;BME280;70563;50.084;14.468;2023-12-22T05:11:58;96377.50;;;3.36;65.74
81057;BME280;70563;50.084;14.468;2023-12-22T05:14:23;96377.34;;;3.44;65.35
81057;BME280;70563;50.084;14.468;2023-12-22T05:16:49;96386.97;;;3.43;67.56
81057;BME280;70563;50.084;14.468;2023-12-22T05:19:14;96389.75;;;3.35;69.00
81057;BME280;70563;50.084;14.468;2023-12-22T05:21:40;96402.78;;;3.29;70.45
81057;BME280;70563;50.084;14.468;2023-12-22T05:24:05;96408.13;;;3.20;71.29
81057;BME280;70563;50.084;14.468;2023-12-22T05:26:30;96395.31;;;3.25;72.01
81057;BME280;70563;50.084;14.468;2023-12-22T05:28:57;96403.31;;;3.17;72.99
81057;BME280;70563;50.084;14.468;2023-12-22T05:31:22;96402.28;;;3.18;74.15
81057;BME280;70563;50.084;14.468;2023-12-22T05:33:47;96393.75;;;2.96;77.33
81057;BME280;70563;50.084;14.468;2023-12-22T05:36:13;96411.66;;;2.78;79.29
81057;BME280;70563;50.084;14.468;2023-12-22T05:38:39;96418.03;;;2.69;80.24
81057;BME280;70563;50.084;14.468;2023-12-22T05:41:05;96415.75;;;2.59;80.95
81057;BME280;70563;50.084;14.468;2023-12-22T05:43:34;96418.91;;;2.55;82.07
81057;BME280;70563;50.084;14.468;2023-12-22T05:46:00;96407.31;;;2.57;81.86
81057;BME280;70563;50.084;14.468;2023-12-22T05:48:28;96414.88;;;2.52;82.20
81057;BME280;70563;50.084;14.468;2023-12-22T05:50:56;96422.38;;;2.19;82.73
81057;BME280;70563;50.084;14.468;2023-12-22T05:53:21;96437.06;;;2.05;83.39
81057;BME280;70563;50.084;14.468;2023-12-22T05:55:46;96423.50;;;2.10;83.16
81057;BME280;70563;50.084;14.468;2023-12-22T05:58:12;96415.56;;;2.18;81.48
81057;BME280;70563;50.084;14.468;2023-12-22T06:00:37;96408.63;;;2.25;81.68
81057;BME280;70563;50.084;14.468;2023-12-22T06:03:02;96419.41;;;2.43;79.76
81057;BME280;70563;50.084;14.468;2023-12-22T06:05:28;96417.34;;;2.60;78.02
81057;BME280;70563;50.084;14.468;2023-12-22T06:07:55;96421.53;;;2.83;76.13
81057;BME280;70563;50.084;14.468;2023-12-22T06:10:20;96424.00;;;2.91;75.50
81057;BME280;70563;50.084;14.468;2023-12-22T06:12:46;96406.78;;;2.96;74.51
81057;BME280;70563;50.084;14.468;2023-12-22T06:15:11;96418.78;;;2.91;74.31
81057;BME280;70563;50.084;14.468;2023-12-22T06:17:36;96421.75;;;2.88;74.40
81057;BME280;70563;50.084;14.468;2023-12-22T06:20:02;96430.22;;;2.90;74.17
81057;BME280;70563;50.084;14.468;2023-12-22T06:22:27;96431.44;;;2.94;74.06
81057;BME280;70563;50.084;14.468;2023-12-22T06:24:53;96434.06;;;2.94;73.82
81057;BME280;70563;50.084;14.468;2023-12-22T06:27:18;96437.91;;;2.98;73.55
81057;BME280;70563;50.084;14.468;2023-12-22T06:29:43;96424.22;;;2.96;72.42
81057;BME280;70563;50.084;14.468;2023-12-22T06:32:09;96414.81;;;2.95;73.38
81057;BME280;70563;50.084;14.468;2023-12-22T06:34:34;96422.78;;;2.93;72.41
81057;BME280;70563;50.084;14.468;2023-12-22T06:36:59;96437.97;;;2.83;73.46
81057;BME280;70563;50.084;14.468;2023-12-22T06:39:25;96455.69;;;2.66;75.75
81057;BME280;70563;50.084;14.468;2023-12-22T06:41:50;96453.16;;;2.51;77.19
81057;BME280;70563;50.084;14.468;2023-12-22T06:44:16;96458.84;;;2.40;78.52
81057;BME280;70563;50.084;14.468;2023-12-22T06:46:41;96446.03;;;2.39;79.60
81057;BME280;70563;50.084;14.468;2023-12-22T06:49:07;96421.22;;;2.21;81.86
81057;BME280;70563;50.084;14.468;2023-12-22T06:51:32;96442.88;;;2.07;82.80
81057;BME280;70563;50.084;14.468;2023-12-22T06:54:01;96457.25;;;1.82;84.55
81057;BME280;70563;50.084;14.468;2023-12-22T06:56:28;96470.34;;;1.73;85.84
81057;BME280;70563;50.084;14.468;2023-12-22T06:58:56;96465.25;;;1.65;86.02
81057;BME280;70563;50.084;14.468;2023-12-22T07:01:26;96473.41;;;1.62;86.13
81057;BME280;70563;50.084;14.468;2023-12-22T07:03:52;96467.59;;;1.60;85.74
81057;BME280;70563;50.084;14.468;2023-12-22T07:06:18;96469.28;;;1.68;85.28
81057;BME280;70563;50.084;14.468;2023-12-22T07:08:44;96465.75;;;1.75;84.20
81057;BME280;70563;50.084;14.468;2023-12-22T07:11:10;96468.56;;;1.74;83.71
81057;BME280;70563;50.084;14.468;2023-12-22T07:13:36;96473.28;;;1.85;82.75
81057;BME280;70563;50.084;14.468;2023-12-22T07:16:02;96467.81;;;1.95;81.94
81057;BME280;70563;50.084;14.468;2023-12-22T07:18:28;96474.81;;;1.94;81.25
81057;BME280;70563;50.084;14.468;2023-12-22T07:20:57;96465.25;;;2.01;80.98
81057;BME280;70563;50.084;14.468;2023-12-22T07:23:23;96457.34;;;2.10;80.29
81057;BME280;70563;50.084;14.468;2023-12-22T07:25:49;96482.22;;;2.12;79.43
81057;BME280;70563;50.084;14.468;2023-12-22T07:28:14;96480.13;;;2.22;79.15
81057;BME280;70563;50.084;14.468;2023-12-22T07:30:41;96475.22;;;2.34;77.66
81057;BME280;70563;50.084;14.468;2023-12-22T07:33:06;96481.94;;;2.43;77.13
81057;BME280;70563;50.084;14.468;2023-12-22T07:35:31;96475.41;;;2.54;76.01
81057;BME280;70563;50.084;14.468;2023-12-22T07:37:56;96486.94;;;2.66;75.49
81057;BME280;70563;50.084;14.468;2023-12-22T07:40:22;96487.44;;;2.76;74.49
81057;BME280;70563;50.084;14.468;2023-12-22T07:42:47;96475.47;;;2.82;73.65
81057;BME280;70563;50.084;14.468;2023-12-22T07:45:13;96491.28;;;2.81;74.18
81057;BME280;70563;50.084;14.468;2023-12-22T07:47:38;96485.75;;;2.90;73.29
81057;BME280;70563;50.084;14.468;2023-12-22T07:50:04;96486.19;;;2.94;72.73
81057;BME280;70563;50.084;14.468;2023-12-22T07:52:33;96480.56;;;2.97;71.85
81057;BME280;70563;50.084;14.468;2023-12-22T07:54:59;96479.25;;;3.36;70.81
81057;BME280;70563;50.084;14.468;2023-12-22T07:57:24;96475.63;;;3.71;69.16
81057;BME280;70563;50.084;14.468;2023-12-22T07:59:49;96483.91;;;3.82;67.98
81057;BME280;70563;50.084;14.468;2023-12-22T08:02:15;96478.03;;;3.73;68.33
81057;BME280;70563;50.084;14.468;2023-12-22T08:04:40;96493.06;;;3.64;67.90
81057;BME280;70563;50.084;14.468;2023-12-22T08:07:06;96491.84;;;3.60;68.60
81057;BME280;70563;50.084;14.468;2023-12-22T08:09:31;96489.72;;;3.84;67.56
81057;BME280;70563;50.084;14.468;2023-12-22T08:11:58;96488.97;;;3.90;66.92
81057;BME280;70563;50.084;14.468;2023-12-22T08:14:23;96484.34;;;3.85;67.18
81057;BME280;70563;50.084;14.468;2023-12-22T08:16:49;96514.88;;;3.91;66.91
81057;BME280;70563;50.084;14.468;2023-12-22T08:19:14;96501.22;;;3.96;66.46
81057;BME280;70563;50.084;14.468;2023-12-22T08:21:39;96501.75;;;4.19;65.64
81057;BME280;70563;50.084;14.468;2023-12-22T08:24:07;96502.75;;;4.25;65.90
81057;BME280;70563;50.084;14.468;2023-12-22T08:26:32;96507.34;;;4.16;66.08
81057;BME280;70563;50.084;14.468;2023-12-22T08:28:58;96490.78;;;3.96;66.41
81057;BME280;70563;50.084;14.468;2023-12-22T08:31:23;96516.88;;;3.89;67.37
81057;BME280;70563;50.084;14.468;2023-12-22T08:33:48;96531.25;;;3.72;69.00
81057;BME280;70563;50.084;14.468;2023-12-22T08:36:14;96503.53;;;3.36;74.09
81057;BME280;70563;50.084;14.468;2023-12-22T08:38:39;96570.34;;;2.66;79.52
81057;BME280;70563;50.084;14.468;2023-12-22T08:41:07;96592.28;;;2.06;83.74
81057;BME280;70563;50.084;14.468;2023-12-22T08:43:33;96572.00;;;1.87;85.77
81057;BME280;70563;50.084;14.468;2023-12-22T08:45:58;96560.16;;;1.69;88.25
81057;BME280;70563;50.084;14.468;2023-12-22T08:48:23;96561.66;;;1.64;89.04
81057;BME280;70563;50.084;14.468;2023-12-22T08:50:49;96559.59;;;1.59;89.54
81057;BME280;70563;50.084;14.468;2023-12-22T08:53:15;96569.94;;;1.53;90.56
81057;BME280;70563;50.084;14.468;2023-12-22T08:55:40;96576.66;;;1.47;90.91
81057;BME280;70563;50.084;14.468;2023-12-22T08:58:05;96580.28;;;1.23;92.53
81057;BME280;70563;50.084;14.468;2023-12-22T09:00:31;96586.28;;;1.23;92.44
81057;BME280;70563;50.084;14.468;2023-12-22T09:02:56;96615.72;;;1.01;92.96
81057;BME280;70563;50.084;14.468;2023-12-22T09:05:22;96599.88;;;1.11;93.62
81057;BME280;70563;50.084;14.468;2023-12-22T09:07:47;96602.72;;;1.01;93.54
81057;BME280;70563;50.084;14.468;2023-12-22T09:10:13;96597.38;;;0.94;94.03
81057;BME280;70563;50.084;14.468;2023-12-22T09:12:38;96597.00;;;0.83;94.56
81057;BME280;70563;50.084;14.468;2023-12-22T09:15:03;96595.09;;;0.77;94.46
81057;BME280;70563;50.084;14.468;2023-12-22T09:17:29;96597.41;;;0.71;95.23
81057;BME280;70563;50.084;14.468;2023-12-22T09:19:54;96584.81;;;0.83;96.24
81057;BME280;70563;50.084;14.468;2023-12-22T09:22:20;96589.59;;;0.94;95.52
81057;BME280;70563;50.084;14.468;2023-12-22T09:24:46;96597.03;;;1.20;95.21
81057;BME280;70563;50.084;14.468;2023-12-22T09:27:12;96590.34;;;1.26;94.80
81057;BME280;70563;50.084;14.468;2023-12-22T09:29:38;96594.81;;;1.32;95.20
81057;BME280;70563;50.084;14.468;2023-12-22T09:32:03;96591.88;;;1.50;92.86
81057;BME280;70563;50.084;14.468;2023-12-22T09:34:29;96571.72;;;1.67;90.27
81057;BME280;70563;50.084;14.468;2023-12-22T09:36:54;96582.66;;;2.07;88.90
81057;BME280;70563;50.084;14.468;2023-12-22T09:39:20;96571.19;;;2.52;87.15
81057;BME280;70563;50.084;14.468;2023-12-22T09:41:48;96577.28;;;2.59;85.02
81057;BME280;70563;50.084;14.468;2023-12-22T09:44:19;96575.00;;;2.71;82.65
81057;BME280;70563;50.084;14.468;2023-12-22T09:46:46;96571.53;;;2.85;82.38
81057;BME280;70563;50.084;14.468;2023-12-22T09:49:14;96571.03;;;2.96;81.40
81057;BME280;70563;50.084;14.468;2023-12-22T09:51:40;96560.78;;;3.16;78.20
81057;BME280;70563;50.084;14.468;2023-12-22T09:54:07;96562.78;;;3.42;78.20
81057;BME280;70563;50.084;14.468;2023-12-22T09:56:34;96556.13;;;3.40;77.31
81057;BME280;70563;50.084;14.468;2023-12-22T09:58:59;96569.16;;;3.40;75.47
81057;BME280;70563;50.084;14.468;2023-12-22T10:01:25;96552.63;;;3.54;74.64
81057;BME280;70563;50.084;14.468;2023-12-22T10:03:52;96541.56;;;3.52;75.71
81057;BME280;70563;50.084;14.468;2023-12-22T10:06:17;96571.91;;;3.32;77.25
81057;BME280;70563;50.084;14.468;2023-12-22T10:08:44;96557.59;;;3.21;78.17
81057;BME280;70563;50.084;14.468;2023-12-22T10:11:12;96558.31;;;2.87;78.69
81057;BME280;70563;50.084;14.468;2023-12-22T10:13:38;96542.03;;;2.63;79.19
81057;BME280;70563;50.084;14.468;2023-12-22T10:16:06;96540.81;;;2.59;78.90
81057;BME280;70563;50.084;14.468;2023-12-22T10:18:33;96568.03;;;2.57;78.17
81057;BME280;70563;50.084;14.468;2023-12-22T10:20:58;96571.31;;;2.44;77.10
81057;BME280;70563;50.084;14.468;2023-12-22T10:23:24;96579.91;;;2.44;77.20
81057;BME280;70563;50.084;14.468;2023-12-22T10:25:50;96607.88;;;2.36;76.92
81057;BME280;70563;50.084;14.468;2023-12-22T10:28:16;96616.22;;;2.31;77.62
81057;BME280;70563;50.084;14.468;2023-12-22T10:30:44;96615.78;;;1.98;81.22
81057;BME280;70563;50.084;14.468;2023-12-22T10:33:11;96606.28;;;1.75;83.90
81057;BME280;70563;50.084;14.468;2023-12-22T10:35:36;96623.56;;;1.68;85.58
81057;BME280;70563;50.084;14.468;2023-12-22T10:38:03;96655.31;;;1.64;86.60
81057;BME280;70563;50.084;14.468;2023-12-22T10:40:29;96632.09;;;1.62;87.59
81057;BME280;70563;50.084;14.468;2023-12-22T10:42:54;96619.38;;;1.67;86.94
81057;BME280;70563;50.084;14.468;2023-12-22T10:45:20;96619.22;;;1.69;86.77
81057;BME280;70563;50.084;14.468;2023-12-22T10:47:48;96625.28;;;1.61;86.60
81057;BME280;70563;50.084;14.468;2023-12-22T10:50:15;96602.03;;;1.60;85.03
81057;BME280;70563;50.084;14.468;2023-12-22T10:52:49;96618.09;;;1.63;85.03
81057;BME280;70563;50.084;14.468;2023-12-22T10:55:15;96647.72;;;1.62;84.84
81057;BME280;70563;50.084;14.468;2023-12-22T10:57:41;96638.63;;;1.58;84.88
81057;BME280;70563;50.084;14.468;2023-12-22T11:00:07;96644.19;;;1.55;84.74
81057;BME280;70563;50.084;14.468;2023-12-22T11:02:34;96657.34;;;1.39;87.65
81057;BME280;70563;50.084;14.468;2023-12-22T11:05:04;96676.59;;;1.07;89.74
81057;BME280;70563;50.084;14.468;2023-12-22T11:07:32;96688.19;;;0.96;91.59
81057;BME280;70563;50.084;14.468;2023-12-22T11:10:04;96680.22;;;0.97;92.50
81057;BME280;70563;50.084;14.468;2023-12-22T11:12:35;96680.69;;;1.01;93.05
81057;BME280;70563;50.084;14.468;2023-12-22T11:15:02;96678.31;;;0.91;93.62
81057;BME280;70563;50.084;14.468;2023-12-22T11:17:30;96680.53;;;0.94;94.36
81057;BME280;70563;50.084;14.468;2023-12-22T11:19:57;96686.69;;;1.02;93.57
81057;BME280;70563;50.084;14.468;2023-12-22T11:22:24;96680.34;;;1.04;93.57
81057;BME280;70563;50.084;14.468;2023-12-22T11:24:51;96680.03;;;0.99;93.69
81057;BME280;70563;50.084;14.468;2023-12-22T11:27:17;96677.34;;;1.15;93.81
81057;BME280;70563;50.084;14.468;2023-12-22T11:29:48;96676.72;;;1.13;93.25
81057;BME280;70563;50.084;14.468;2023-12-22T11:32:18;96669.38;;;1.17;93.04
81057;BME280;70563;50.084;14.468;2023-12-22T11:34:45;96692.25;;;1.21;92.98
81057;BME280;70563;50.084;14.468;2023-12-22T11:37:13;96666.53;;;1.27;92.27
81057;BME280;70563;50.084;14.468;2023-12-22T11:39:43;96640.41;;;1.20;92.03
81057;BME280;70563;50.084;14.468;2023-12-22T11:42:12;96679.44;;;1.43;90.60
81057;BME280;70563;50.084;14.468;2023-12-22T11:44:39;96704.66;;;1.95;89.28
81057;BME280;70563;50.084;14.468;2023-12-22T11:47:08;96679.19;;;1.67;89.83
81057;BME280;70563;50.084;14.468;2023-12-22T11:49:37;96669.78;;;1.66;90.09
81057;BME280;70563;50.084;14.468;2023-12-22T11:52:17;96666.75;;;2.66;86.96
81057;BME280;70563;50.084;14.468;2023-12-22T11:54:50;96674.34;;;2.46;87.03
81057;BME280;70563;50.084;14.468;2023-12-22T11:57:29;96659.88;;;2.29;87.51
81057;BME280;70563;50.084;14.468;2023-12-22T12:00:08;96646.50;;;2.17;87.76
81057;BME280;70563;50.084;14.468;2023-12-22T12:02:35;96640.38;;;2.40;86.63
81057;BME280;70563;50.084;14.468;2023-12-22T12:05:01;96635.25;;;2.83;85.46
81057;BME280;70563;50.084;14.468;2023-12-22T12:07:43;96630.53;;;2.93;84.84
81057;BME280;70563;50.084;14.468;2023-12-22T12:13:09;96608.81;;;2.49;85.37
81057;BME280;70563;50.084;14.468;2023-12-22T12:15:36;96595.44;;;2.53;86.15
81057;BME280;70563;50.084;14.468;2023-12-22T12:18:02;96596.34;;;2.45;83.89
81057;BME280;70563;50.084;14.468;2023-12-22T12:20:28;96585.81;;;2.53;83.57
81057;BME280;70563;50.084;14.468;2023-12-22T12:22:54;96575.22;;;2.55;83.32
81057;BME280;70563;50.084;14.468;2023-12-22T12:25:22;96570.84;;;2.76;83.03
81057;BME280;70563;50.084;14.468;2023-12-22T12:28:00;96564.63;;;2.78;79.37
81057;BME280;70563;50.084;14.468;2023-12-22T12:30:26;96569.47;;;2.81;79.98
81057;BME280;70563;50.084;14.468;2023-12-22T12:32:51;96557.44;;;3.01;79.35
81057;BME280;70563;50.084;14.468;2023-12-22T12:35:18;96567.16;;;3.14;76.06
81057;BME280;70563;50.084;14.468;2023-12-22T12:37:44;96555.03;;;3.27;74.36
81057;BME280;70563;50.084;14.468;2023-12-22T12:40:11;96552.28;;;3.36;74.49
81057;BME280;70563;50.084;14.468;2023-12-22T12:42:36;96560.47;;;3.54;72.69
81057;BME280;70563;50.084;14.468;2023-12-22T12:45:07;96560.25;;;3.56;72.53
81057;BME280;70563;50.084;14.468;2023-12-22T12:47:32;96550.78;;;3.48;72.73
81057;BME280;70563;50.084;14.468;2023-12-22T12:50:01;96546.22;;;3.57;72.73
81057;BME280;70563;50.084;14.468;2023-12-22T12:52:28;96536.19;;;3.60;73.08
81057;BME280;70563;50.084;14.468;2023-12-22T12:54:53;96545.28;;;3.71;73.62
81057;BME280;70563;50.084;14.468;2023-12-22T12:57:19;96543.88;;;3.68;72.67
81057;BME280;70563;50.084;14.468;2023-12-22T12:59:46;96547.66;;;3.59;73.07